首页
METAR-TAF:

METAR-TAF

机场 :

马略卡岛帕尔马机场

帕爾馬, 西班牙

纬度: 39-33N, 经度: 002-44E, 海拔: 4米

当前天气观测

该预报发布于15分钟前的14:00 UTC
风速13节,风向西南,在西转西南之间变化
温度 29°C
湿度 45%
气压 1020 hPa
能见度10公里或以上
少量云层高于2200英尺

METAR: LEPA 191400Z 23013KT 190V250 9999 FEW022 29/16 Q1020 NOSIG

时间: 16:15 (14:15 UTC)

预报

该预报发布于9分钟前的14:06 UTC
预报有效从19日的 14点(UTC)到 20日的 12点(UTC)
风速10节,风向北转东北
能见度10公里或以上
少量云层高于3000英尺
短暂存在
从 19日的 14点(UTC)到 19日的 18点(UTC)
风速10节,风向西南
成为
从 19日的 18点(UTC)到 19日的 20点(UTC)
风速3节,风向多变
成为
从 20日的 10点(UTC)到 20日的 12点(UTC)
风速10节,风向南转西南

TAF: LEPA 191406Z 1914/2012 03010KT 9999 FEW030 TX30/1914Z TN17/2006Z TEMPO 1914/1918 22010KT BECMG 1918/1920 VRB03KT BECMG 2010/2012 21010KT

超过4000个机场的气象观测和天气预报(METAR&TAF报告)。

可查询的气象台以黄色和红色小点在地图上表示。

将鼠标移到小点上方,可查看气象台名称。

然后点击查看天气观测和预报。

如需切换地图:点击带黑十字的绿色按钮放大地图;点击带横线的绿色按钮缩小地图;或者点击绿色箭头查看邻近地区的地图。


METAR-TAF: